Time;durP1;ratioP1;P1;durP2;ratioP2;P2;SDS_P1;SDS_P2;PMS_P1;PMS_P2;Temp;Humidity;BMP_temperature;BMP_pressure;BME280_temperature;BME280_humidity;BME280_pressure;Samples;Min_cycle;Max_cycle;Signal;HPM_P1;HPM_P2
2022/02/07 00:01:32;;;;;;;;;29.00;27.00;;;;;7.76;67.06;101364.94;146604;574;47020;-75
2022/02/07 00:04:29;;;;;;;;;31.00;29.25;;;;;7.72;66.85;101368.06;146606;587;47010;-75
2022/02/07 00:07:22;;;;;;;;;30.00;27.50;;;;;7.66;67.45;101359.88;146610;583;45916;-75
2022/02/07 00:10:14;;;;;;;;;34.00;30.50;;;;;7.59;67.54;101355.94;146607;723;46016;-74
2022/02/07 00:13:06;;;;;;;;;29.50;26.25;;;;;7.54;68.22;101338.31;146608;654;47008;-75
2022/02/07 00:15:58;;;;;;;;;22.00;19.75;;;;;5.98;68.77;101067.34;146607;577;46032;-76
2022/02/07 00:18:51;;;;;;;;;23.75;21.75;;;;;7.52;67.85;101329.59;146604;609;46020;-75
2022/02/07 00:21:45;;;;;;;;;20.75;17.25;;;;;7.55;67.02;101327.22;146604;599;46017;-73
2022/02/07 00:24:37;;;;;;;;;22.00;18.25;;;;;7.57;67.57;101330.81;146606;591;46010;-72
2022/02/07 00:27:30;;;;;;;;;24.50;21.50;;;;;7.59;68.80;101324.06;146608;604;46016;-73
2022/02/07 00:30:24;;;;;;;;;22.00;18.75;;;;;7.61;68.02;101319.94;146608;651;46008;-72
2022/02/07 00:33:16;;;;;;;;;23.75;18.00;;;;;7.62;68.75;101317.44;146606;570;46010;-72
2022/02/07 00:36:09;;;;;;;;;20.75;19.00;;;;;7.64;66.91;101315.00;146605;662;46020;-72
2022/02/07 00:39:08;;;;;;;;;26.25;23.25;;;;;7.69;67.38;101307.56;146605;637;46012;-72
2022/02/07 00:42:04;;;;;;;;;53.25;41.25;;;;;7.73;66.76;101294.13;146608;594;46008;-72
2022/02/07 00:45:01;;;;;;;;;25.00;21.00;;;;;7.69;67.61;101292.97;146607;578;45914;-71
2022/02/07 00:48:00;;;;;;;;;28.75;26.25;;;;;7.63;67.03;101293.47;146608;572;45020;-72
2022/02/07 00:50:55;;;;;;;;;37.25;31.00;;;;;7.64;67.36;101281.44;146599;580;46016;-71
2022/02/07 00:53:48;;;;;;;;;34.00;31.75;;;;;7.64;69.27;101271.13;146602;643;46008;-74
2022/02/07 00:56:41;;;;;;;;;32.75;29.50;;;;;7.62;68.47;101258.09;146597;651;46016;-77
2022/02/07 00:59:34;;;;;;;;;46.25;36.75;;;;;7.64;66.92;101253.06;146602;583;46021;-76
2022/02/07 01:02:26;;;;;;;;;40.25;36.00;;;;;7.67;68.39;101240.37;146599;563;47010;-76
2022/02/07 01:05:19;;;;;;;;;26.75;25.50;;;;;7.64;69.81;101232.41;146602;632;46011;-73
2022/02/07 01:08:12;;;;;;;;;30.00;24.75;;;;;7.63;69.40;101228.94;146600;564;46914;-73
2022/02/07 01:11:20;;;;;;;;;23.50;21.25;;;;;7.64;67.74;101220.41;146602;620;46020;-73
2022/02/07 01:47:02;;;;;;;;;22.50;20.00;;;;;7.34;68.78;101161.44;146601;618;45911;-75
2022/02/07 01:50:18;;;;;;;;;23.00;19.00;;;;;7.38;69.92;101168.59;146605;612;46008;-74
2022/02/07 01:56:10;;;;;;;;;38.00;31.25;;;;;7.43;69.91;101151.78;146604;577;46020;-73
2022/02/07 01:59:02;;;;;;;;;22.25;20.25;;;;;7.50;68.84;101145.37;146603;622;46017;-72
2022/02/07 02:01:54;;;;;;;;;23.25;19.75;;;;;7.59;70.98;101140.84;146608;656;46008;-72
2022/02/07 02:04:47;;;;;;;;;36.25;31.50;;;;;7.65;69.58;101125.78;146605;564;46016;-71
2022/02/07 02:07:40;;;;;;;;;42.00;35.75;;;;;7.73;69.86;101123.75;146603;599;46021;-72
2022/02/07 02:10:32;;;;;;;;;25.00;22.00;;;;;7.76;69.58;101118.81;146605;576;46010;-73
2022/02/07 02:13:40;;;;;;;;;35.50;33.00;;;;;7.78;69.78;101118.09;146607;570;46009;-72
2022/02/07 02:16:45;;;;;;;;;23.75;21.75;;;;;7.77;69.83;101115.41;146606;709;46016;-72
2022/02/07 02:33:04;;;;;;;;;26.25;22.75;;;;;7.58;69.18;101093.50;146608;616;46020;-73
2022/02/07 02:36:26;;;;;;;;;29.25;25.50;;;;;7.57;69.32;101085.63;146605;653;46912;-73
2022/02/07 02:45:43;;;;;;;;;51.25;39.75;;;;;7.62;68.01;101069.69;146603;663;46023;-73
2022/02/07 02:48:41;;;;;;;;;33.75;31.00;;;;;7.63;68.72;101065.41;146603;684;46016;-73
2022/02/07 02:51:34;;;;;;;;;35.50;27.50;;;;;7.55;70.63;101048.53;146603;577;46020;-70
2022/02/07 02:54:26;;;;;;;;;27.00;25.50;;;;;7.51;69.68;101046.53;146607;715;45016;-71
2022/02/07 02:57:18;;;;;;;;;62.00;49.50;;;;;7.45;69.96;101047.00;146607;599;46021;-71
2022/02/07 03:00:11;;;;;;;;;25.25;23.00;;;;;7.43;70.15;101048.56;146604;631;46016;-72
2022/02/07 03:03:04;;;;;;;;;32.00;26.75;;;;;7.44;69.33;101034.00;146607;623;46008;-73
2022/02/07 03:05:56;;;;;;;;;64.50;50.50;;;;;7.45;68.99;101022.91;146605;606;46011;-70
2022/02/07 03:08:48;;;;;;;;;38.25;32.25;;;;;7.46;69.00;101027.25;146607;621;46020;-72
2022/02/07 03:11:41;;;;;;;;;26.25;22.25;;;;;7.49;68.74;101022.31;146605;564;46010;-72
2022/02/07 03:14:37;;;;;;;;;36.50;32.25;;;;;7.56;69.15;101024.50;146604;574;46916;-72
2022/02/07 03:17:29;;;;;;;;;47.25;39.50;;;;;7.63;68.58;101019.87;146604;599;47010;-76
2022/02/07 03:20:22;;;;;;;;;36.50;31.25;;;;;7.71;69.48;101019.50;146602;582;47008;-74
2022/02/07 03:23:14;;;;;;;;;34.75;30.00;;;;;7.73;69.67;101007.59;146607;630;46010;-74
2022/02/07 03:26:06;;;;;;;;;24.25;23.25;;;;;7.75;69.97;101024.06;146606;659;47010;-77
2022/02/07 03:28:58;;;;;;;;;54.25;41.25;;;;;7.74;72.76;100992.19;146600;600;46017;-76
2022/02/07 03:31:51;;;;;;;;;30.50;25.75;;;;;7.66;74.28;100987.31;146608;599;46020;-78
2022/02/07 03:34:43;;;;;;;;;34.50;31.00;;;;;7.62;73.65;101012.91;146603;628;46017;-78
2022/02/07 03:37:36;;;;;;;;;46.00;35.25;;;;;7.68;74.00;100970.25;146608;583;46008;-77
2022/02/07 03:40:28;;;;;;;;;32.50;29.25;;;;;7.74;73.14;100978.41;146604;602;46016;-77
2022/02/07 03:43:20;;;;;;;;;30.75;29.00;;;;;7.85;70.85;100960.25;146607;601;46021;-80
2022/02/07 03:46:12;;;;;;;;;44.00;36.50;;;;;8.02;70.49;100970.78;146602;628;46016;-81
2022/02/07 03:49:05;;;;;;;;;52.00;40.75;;;;;8.17;71.70;100948.53;146607;570;45021;-70
2022/02/07 03:51:57;;;;;;;;;50.50;41.00;;;;;8.28;70.01;100968.19;146603;582;46012;-73
2022/02/07 03:54:49;;;;;;;;;56.50;44.50;;;;;8.37;71.21;100926.53;146606;651;47008;-72
2022/02/07 03:57:42;;;;;;;;;44.75;37.00;;;;;8.44;74.40;100941.69;146604;573;46021;-72
2022/02/07 04:00:36;;;;;;;;;51.25;41.25;;;;;8.52;70.65;100943.03;146605;564;47008;-70
2022/02/07 04:03:31;;;;;;;;;50.75;41.00;;;;;8.64;69.37;100930.00;146606;563;46010;-71
2022/02/07 04:06:25;;;;;;;;;62.00;48.00;;;;;8.73;69.10;100933.16;146601;638;46021;-71
2022/02/07 04:09:21;;;;;;;;;57.75;45.00;;;;;8.78;68.75;100923.09;146604;563;46016;-73
2022/02/07 04:12:19;;;;;;;;;67.50;50.25;;;;;8.85;68.11;100922.69;146604;628;46021;-72
2022/02/07 04:15:16;;;;;;;;;104.00;91.00;;;;;8.94;67.78;100914.56;146609;670;46010;-72
2022/02/07 04:18:12;;;;;;;;;75.33;56.33;;;;;8.97;68.97;100918.25;146610;619;46020;-72
2022/02/07 04:21:05;;;;;;;;;65.50;52.00;;;;;9.04;68.43;100906.59;146604;643;46017;-72
2022/02/07 04:23:57;;;;;;;;;72.00;59.25;;;;;9.09;68.22;100909.44;146607;605;46008;-72
2022/02/07 04:26:49;;;;;;;;;61.75;49.00;;;;;9.10;68.12;100908.66;146604;638;47013;-73
2022/02/07 04:29:41;;;;;;;;;73.50;56.00;;;;;9.12;69.45;100901.84;146609;585;46008;-73
2022/02/07 04:32:34;;;;;;;;;61.50;49.25;;;;;9.08;68.51;100898.19;146605;649;46016;-73
2022/02/07 04:35:26;;;;;;;;;55.00;44.50;;;;;9.08;69.19;100903.38;146605;594;47008;-75
2022/02/07 04:38:18;;;;;;;;;52.75;43.00;;;;;9.09;68.54;100899.09;146603;632;47012;-75
2022/02/07 04:41:11;;;;;;;;;52.50;44.00;;;;;9.10;68.83;100887.97;146608;678;46008;-75
2022/02/07 04:44:08;;;;;;;;;65.25;49.50;;;;;9.12;68.56;100889.81;146603;599;46016;-76
2022/02/07 04:47:21;;;;;;;;;78.67;67.33;;;;;9.13;68.33;100880.38;146604;649;46008;-73
2022/02/07 04:50:32;;;;;;;;;57.50;44.75;;;;;9.14;69.10;100883.03;146605;570;47010;-69
2022/02/07 04:53:40;;;;;;;;;52.75;45.00;;;;;9.17;68.36;100872.00;146607;749;46008;-69
2022/02/07 05:03:03;;;;;;;;;70.50;53.75;;;;;9.21;68.34;100874.84;146603;565;46016;-74
2022/02/07 05:15:26;;;;;;;;;60.50;47.25;;;;;9.01;69.66;100872.78;146604;703;46016;-71
2022/02/07 05:18:20;;;;;;;;;55.25;45.00;;;;;8.94;71.76;100858.59;146606;592;47008;-73
2022/02/07 05:21:12;;;;;;;;;66.50;50.50;;;;;8.87;70.02;100881.37;146605;582;46016;-72
2022/02/07 05:24:04;;;;;;;;;64.50;49.75;;;;;8.84;69.69;100866.56;146604;615;46020;-72
2022/02/07 05:26:57;;;;;;;;;66.00;51.00;;;;;8.87;69.88;100865.88;146604;630;47011;-72
2022/02/07 05:29:49;;;;;;;;;67.25;51.25;;;;;8.87;70.34;100858.13;146607;605;47008;-72
2022/02/07 05:32:41;;;;;;;;;69.00;53.25;;;;;8.89;69.59;100865.16;146603;654;46016;-72
2022/02/07 05:35:34;;;;;;;;;64.25;50.75;;;;;8.90;71.38;100861.78;146611;574;46008;-70
2022/02/07 05:38:26;;;;;;;;;58.50;46.25;;;;;8.86;70.16;100852.06;146606;661;46010;-74
2022/02/07 05:41:19;;;;;;;;;64.75;49.75;;;;;8.85;69.85;100851.94;146605;622;46021;-74
2022/02/07 05:44:14;;;;;;;;;50.25;42.50;;;;;8.82;72.03;100856.97;146605;656;46016;-72
2022/02/07 05:47:07;;;;;;;;;54.50;41.75;;;;;8.82;69.95;100862.12;146605;564;46020;-71
2022/02/07 05:49:59;;;;;;;;;56.25;44.50;;;;;8.84;70.17;100855.34;146605;583;46914;-70
2022/02/07 05:52:52;;;;;;;;;57.00;46.00;;;;;8.87;70.19;100855.53;146607;580;46020;-70
2022/02/07 05:55:44;;;;;;;;;51.25;41.75;;;;;8.89;70.32;100867.75;146602;596;46016;-70
2022/02/07 05:58:36;;;;;;;;;94.00;87.00;;;;;8.91;70.18;100854.91;146613;622;46008;-70
2022/02/07 06:01:28;;;;;;;;;47.75;39.00;;;;;8.91;71.10;100857.47;146609;644;46016;-70
2022/02/07 06:04:21;;;;;;;;;44.00;36.00;;;;;8.89;70.17;100861.69;146607;583;47008;-69
2022/02/07 06:07:13;;;;;;;;;55.25;44.25;;;;;8.90;69.74;100871.22;146605;578;46914;-71
2022/02/07 06:10:05;;;;;;;;;63.75;47.25;;;;;8.94;71.04;100857.66;146605;610;47008;-72
2022/02/07 06:12:57;;;;;;;;;65.25;49.50;;;;;8.97;70.84;100873.38;146606;569;46012;-72
2022/02/07 06:15:50;;;;;;;;;65.00;47.50;;;;;8.99;69.90;100883.00;146604;580;46008;-73
2022/02/07 06:18:42;;;;;;;;;65.50;51.25;;;;;9.08;71.74;100876.63;146602;582;46011;-72
2022/02/07 06:21:35;;;;;;;;;89.33;81.67;;;;;9.12;70.27;100879.47;146606;744;46020;-71
2022/02/07 06:24:27;;;;;;;;;83.33;72.67;;;;;9.14;71.43;100864.03;146606;611;47013;-71
2022/02/07 06:27:19;;;;;;;;;62.00;49.75;;;;;9.17;71.88;100859.06;146611;621;46010;-70
2022/02/07 06:30:12;;;;;;;;;69.25;53.75;;;;;9.23;70.40;100860.31;146606;578;46010;-71
2022/02/07 06:33:04;;;;;;;;;100.00;90.67;;;;;9.33;70.13;100845.31;146599;575;46916;-71
2022/02/07 06:35:58;;;;;;;;;79.00;68.67;;;;;9.62;70.03;100852.16;146599;615;46016;-71
2022/02/07 06:38:51;;;;;;;;;73.67;57.00;;;;;9.81;69.90;100870.53;146601;646;46020;-70
2022/02/07 06:41:43;;;;;;;;;67.25;53.00;;;;;9.87;68.54;100864.78;146596;573;46029;-70
2022/02/07 06:44:35;;;;;;;;;64.75;51.00;;;;;9.91;68.85;100859.88;146592;565;46020;-70
2022/02/07 06:47:28;;;;;;;;;66.25;49.50;;;;;9.95;69.14;100859.22;146599;615;46010;-69
2022/02/07 06:50:20;;;;;;;;;88.67;76.33;;;;;9.98;71.67;100842.97;146600;573;47008;-75
2022/02/07 06:53:13;;;;;;;;;65.00;50.00;;;;;10.01;69.78;100857.81;146599;600;47010;-76
2022/02/07 06:56:05;;;;;;;;;73.75;59.25;;;;;10.44;70.62;100855.88;146598;619;45021;-72
2022/02/07 06:58:57;;;;;;;;;67.50;50.50;;;;;11.24;69.31;100844.44;146595;601;46913;-72
2022/02/07 07:01:50;;;;;;;;;65.25;49.25;;;;;11.82;66.73;100836.06;146594;569;48008;-70
2022/02/07 07:04:43;;;;;;;;;72.50;56.25;;;;;12.48;65.15;100858.25;146601;599;46017;-79
2022/02/07 07:07:35;;;;;;;;;73.00;60.33;;;;;12.99;63.00;100843.19;146596;629;46008;-72
2022/02/07 07:10:28;;;;;;;;;71.50;54.75;;;;;13.39;60.98;100837.97;146597;570;46914;-71
2022/02/07 07:13:25;;;;;;;;;71.25;56.75;;;;;13.61;60.10;100841.44;146589;679;47008;-80
2022/02/07 07:19:36;;;;;;;;;103.00;89.00;;;;;13.56;59.98;100827.34;146605;607;46023;-73
2022/02/07 07:22:31;;;;;;;;;182.00;147.00;;;;;13.43;60.72;100839.00;146603;583;47010;-71
2022/02/07 07:25:23;;;;;;;;;105.00;90.67;;;;;13.27;60.75;100844.38;146605;688;46008;-73
2022/02/07 07:28:17;;;;;;;;;70.25;55.75;;;;;13.04;61.52;100840.75;146599;637;46019;-76
2022/02/07 07:31:12;;;;;;;;;71.25;59.25;;;;;12.83;61.54;100839.00;146595;612;47010;-75
2022/02/07 07:34:04;;;;;;;;;70.25;55.00;;;;;12.64;62.29;100831.19;146596;583;46914;-75
2022/02/07 07:36:56;;;;;;;;;64.00;49.25;;;;;12.57;63.06;100836.97;146597;595;47008;-75
2022/02/07 07:39:49;;;;;;;;;59.75;46.25;;;;;12.50;63.14;100829.72;146596;591;46011;-75
2022/02/07 07:42:44;;;;;;;;;69.50;53.75;;;;;12.47;62.99;100822.66;146595;566;45915;-76
2022/02/07 07:45:43;;;;;;;;;71.25;54.00;;;;;12.49;63.34;100823.59;146595;593;47010;-74
2022/02/07 07:48:36;;;;;;;;;78.00;71.00;;;;;12.53;63.38;100814.25;146598;565;47008;-73
2022/02/07 07:51:41;;;;;;;;;71.00;59.33;;;;;12.57;63.36;100814.44;146599;634;47010;-71
2022/02/07 07:54:50;;;;;;;;;68.00;55.50;;;;;12.65;63.53;100794.88;146600;573;47009;-74
2022/02/07 08:04:04;;;;;;;;;70.50;58.50;;;;;13.22;62.99;100766.03;146598;596;46016;-73
2022/02/07 08:13:31;;;;;;;;;66.25;52.75;;;;;14.08;61.67;100759.91;146592;579;46008;-74
2022/02/07 08:16:23;;;;;;;;;60.25;48.50;;;;;14.45;60.62;100756.03;146593;678;46017;-74
2022/02/07 08:19:15;;;;;;;;;70.00;55.25;;;;;14.79;59.89;100754.66;146598;616;46020;-74
2022/02/07 08:22:09;;;;;;;;;71.50;57.75;;;;;15.02;59.33;100747.62;146591;575;46016;-74
2022/02/07 08:25:02;;;;;;;;;71.00;57.25;;;;;15.28;59.56;100748.47;146597;621;46008;-74
2022/02/07 08:27:55;;;;;;;;;63.75;50.50;;;;;15.53;58.41;100736.19;146593;601;46012;-74
2022/02/07 08:30:47;;;;;;;;;53.25;43.25;;;;;15.66;57.51;100733.97;146596;573;46020;-68
2022/02/07 08:33:39;;;;;;;;;53.25;40.75;;;;;15.82;57.53;100730.12;146595;569;46012;-81
2022/02/07 08:36:31;;;;;;;;;46.25;37.50;;;;;16.05;56.92;100722.09;146594;601;46008;-73
2022/02/07 08:39:24;;;;;;;;;45.75;36.75;;;;;16.32;56.77;100720.28;146593;602;46017;-73
2022/02/07 08:42:16;;;;;;;;;44.75;34.75;;;;;16.59;56.16;100714.87;146591;582;46020;-72
2022/02/07 08:45:10;;;;;;;;;39.50;32.00;;;;;16.78;55.40;100708.44;146591;615;46016;-72
2022/02/07 08:48:02;;;;;;;;;45.50;36.50;;;;;16.94;54.79;100709.69;146598;585;46020;-73
2022/02/07 08:50:57;;;;;;;;;44.00;36.00;;;;;17.09;55.44;100715.31;146593;596;46016;-73
2022/02/07 08:53:50;;;;;;;;;45.50;37.75;;;;;17.34;54.39;100709.78;146594;636;46020;-73
2022/02/07 08:56:53;;;;;;;;;45.75;37.00;;;;;17.45;50.71;100708.31;146595;580;46016;-73
2022/02/07 08:59:59;;;;;;;;;45.00;36.00;;;;;17.46;51.06;100713.59;146593;634;46021;-73
2022/02/07 09:03:12;;;;;;;;;24.75;23.50;;;;;17.55;51.13;100715.53;146590;586;47010;-73
2022/02/07 09:09:19;;;;;;;;;14.25;9.50;;;;;17.91;47.52;100699.75;146596;650;46019;-72
2022/02/07 09:12:12;;;;;;;;;16.25;12.50;;;;;18.12;48.60;100709.78;146591;599;46020;-72
2022/02/07 09:15:27;;;;;;;;;10.00;8.25;;;;;18.24;43.03;100698.66;146597;701;46017;-73
2022/02/07 09:18:16;;;;;;;;;11.75;10.00;;;;;18.23;47.15;100697.78;146599;570;46010;-73
2022/02/07 09:21:12;;;;;;;;;11.50;9.50;;;;;18.33;47.99;100695.34;146595;591;46016;-73
2022/02/07 09:24:06;;;;;;;;;14.75;10.75;;;;;18.52;45.14;100680.81;146595;658;46021;-72
2022/02/07 09:26:58;;;;;;;;;12.00;10.00;;;;;18.69;47.29;100674.09;146590;677;46031;-72
2022/02/07 09:29:51;;;;;;;;;11.00;9.25;;;;;18.95;46.24;100668.47;146598;564;46020;-73
2022/02/07 09:32:43;;;;;;;;;9.25;8.00;;;;;19.13;42.73;100655.62;146594;600;46016;-72
2022/02/07 09:35:35;;;;;;;;;16.25;14.75;;;;;19.30;45.89;100659.34;146597;578;47008;-72
2022/02/07 09:38:28;;;;;;;;;4.75;3.50;;;;;19.53;45.00;100643.91;146589;702;47914;-72
2022/02/07 09:41:22;;;;;;;;;9.50;6.50;;;;;19.74;43.13;100635.44;146595;610;46008;-72
2022/02/07 09:44:16;;;;;;;;;7.25;6.75;;;;;19.71;37.08;100635.41;146596;582;46016;-72
2022/02/07 09:47:10;;;;;;;;;6.75;6.50;;;;;19.46;39.03;100626.28;146598;565;47008;-72
2022/02/07 09:50:02;;;;;;;;;7.00;6.25;;;;;19.20;40.26;100622.41;146597;631;46016;-73
2022/02/07 09:52:54;;;;;;;;;6.00;5.67;;;;;19.00;40.72;100620.34;146601;604;46021;-74
2022/02/07 09:55:47;;;;;;;;;9.67;6.67;;;;;18.76;43.40;100613.00;146601;693;46913;-73
2022/02/07 09:58:39;;;;;;;;;8.25;7.50;;;;;18.57;44.23;100608.25;146595;650;46020;-72
2022/02/07 10:01:36;;;;;;;;;10.00;8.00;;;;;17.61;45.28;100448.25;146600;644;47012;-72
2022/02/07 10:04:33;;;;;;;;;7.50;5.25;;;;;18.29;45.69;100538.66;146603;570;46008;-71
2022/02/07 10:07:40;;;;;;;;;8.33;6.67;;;;;18.69;45.24;100579.53;146596;625;46017;-72
2022/02/07 10:10:41;;;;;;;;;8.50;7.25;;;;;18.88;43.73;100568.53;146591;593;46020;-70
2022/02/07 10:13:43;;;;;;;;;8.50;8.25;;;;;19.07;44.19;100561.78;146592;708;46016;-71
2022/02/07 10:17:02;;;;;;;;;10.75;9.00;;;;;19.27;44.95;100556.78;146597;679;46021;-71
2022/02/07 10:20:16;;;;;;;;;9.00;7.75;;;;;19.41;43.72;100542.94;146595;633;46016;-71
2022/02/07 10:39:31;;;;;;;;;9.00;8.00;;;;;18.45;45.30;100504.78;146597;624;46016;-71
2022/02/07 10:45:33;;;;;;;;;12.00;10.00;;;;;18.13;45.17;100498.13;146597;599;47010;-71
2022/02/07 10:48:48;;;;;;;;;11.50;11.25;;;;;18.06;47.80;100489.28;146597;573;46020;-71
2022/02/07 10:51:40;;;;;;;;;10.50;9.25;;;;;17.95;46.22;100480.34;146589;600;47914;-71
2022/02/07 10:54:33;;;;;;;;;7.50;7.00;;;;;17.85;44.66;100483.66;146599;586;46020;-70
2022/02/07 10:57:25;;;;;;;;;7.75;7.00;;;;;17.80;46.66;100480.06;146594;631;46026;-71
2022/02/07 11:00:22;;;;;;;;;11.50;10.25;;;;;17.75;45.36;100467.72;146598;574;46020;-71
2022/02/07 11:03:19;;;;;;;;;12.00;10.50;;;;;17.76;46.17;100455.50;146597;633;46016;-71
2022/02/07 11:06:16;;;;;;;;;13.00;10.50;;;;;17.75;46.20;100449.34;146598;573;46008;-71
2022/02/07 11:09:24;;;;;;;;;15.75;12.00;;;;;17.78;45.78;100445.94;146596;667;47010;-71
2022/02/07 11:12:43;;;;;;;;;13.50;10.50;;;;;17.76;44.94;100431.91;146590;610;46020;-72
2022/02/07 11:15:41;;;;;;;;;17.00;16.00;;;;;17.70;46.62;100430.06;146598;635;46912;-70
2022/02/07 11:25:50;;;;;;;;;11.50;9.75;;;;;18.18;46.47;100413.37;146598;633;46020;-71
2022/02/07 11:28:47;;;;;;;;;6.75;5.75;;;;;18.34;44.56;100401.34;146601;702;46011;-72
2022/02/07 11:31:44;;;;;;;;;4.25;4.25;;;;;18.41;42.89;100392.75;146606;566;46008;-71
2022/02/07 11:34:51;;;;;;;;;8.00;8.00;;;;;18.54;42.82;100390.28;146600;681;46016;-71
2022/02/07 11:37:44;;;;;;;;;21.00;18.50;;;;;18.43;43.64;100395.38;146599;564;46008;-71
2022/02/07 11:40:39;;;;;;;;;13.25;13.25;;;;;18.25;43.15;100374.97;146594;580;46016;-71
2022/02/07 11:43:33;;;;;;;;;18.25;14.25;;;;;18.15;44.11;100378.34;146590;622;46020;-71
2022/02/07 11:46:26;;;;;;;;;18.25;16.25;;;;;18.07;42.89;100373.00;146596;581;46016;-71
2022/02/07 11:49:28;;;;;;;;;9.50;9.50;;;;;18.13;45.39;100364.31;146599;720;46020;-71
2022/02/07 11:52:47;;;;;;;;;5.75;5.75;;;;;18.46;44.08;100354.28;146603;692;46016;-71
2022/02/07 11:55:49;;;;;;;;;5.50;5.50;;;;;18.94;42.09;100347.03;146605;578;46008;-72
2022/02/07 12:02:47;;;;;;;;;5.25;5.25;;;;;19.70;38.29;100336.38;146600;705;47008;-71
2022/02/07 12:05:50;;;;;;;;;9.75;7.75;;;;;19.84;40.04;100334.75;146603;661;46016;-70
2022/02/07 12:08:42;;;;;;;;;4.00;4.00;;;;;20.02;40.42;100341.87;146609;569;46008;-70
2022/02/07 12:12:00;;;;;;;;;7.00;6.00;;;;;19.09;38.19;100162.34;146602;563;46016;-71
2022/02/07 12:14:53;;;;;;;;;5.75;5.75;;;;;20.14;38.23;100327.03;146596;570;47020;-71
2022/02/07 12:17:47;;;;;;;;;13.50;12.25;;;;;20.20;38.43;100325.31;146596;645;47010;-72
2022/02/07 12:20:40;;;;;;;;;12.25;11.25;;;;;20.05;39.66;100318.22;146601;613;47008;-71
2022/02/07 12:23:34;;;;;;;;;11.25;9.25;;;;;20.02;39.10;100319.94;146596;677;46017;-71
2022/02/07 12:26:26;;;;;;;;;11.00;8.00;;;;;20.16;39.02;100309.50;146600;691;47010;-70
2022/02/07 12:29:36;;;;;;;;;7.25;6.25;;;;;20.27;38.15;100286.75;146603;671;46011;-71
2022/02/07 12:32:29;;;;;;;;;13.75;13.25;;;;;20.45;37.69;100285.94;146592;599;46010;-71
2022/02/07 12:35:21;;;;;;;;;15.25;12.00;;;;;20.46;38.10;100283.31;146600;580;46016;-70
2022/02/07 12:38:14;;;;;;;;;6.33;6.33;;;;;20.51;36.97;100273.72;146607;610;47008;-72
2022/02/07 12:41:11;;;;;;;;;14.75;13.25;;;;;20.63;38.99;100285.19;146599;565;47010;-70
2022/02/07 12:44:10;;;;;;;;;9.25;9.25;;;;;20.75;39.05;100265.00;146590;570;46020;-70
2022/02/07 12:47:02;;;;;;;;;12.75;11.25;;;;;20.83;39.40;100261.50;146601;655;46010;-70
2022/02/07 12:49:56;;;;;;;;;8.75;7.25;;;;;20.86;38.54;100258.88;146599;564;47008;-70
2022/02/07 12:52:48;;;;;;;;;7.00;6.75;;;;;20.97;36.29;100265.94;146603;685;46017;-70
2022/02/07 12:55:41;;;;;;;;;17.00;15.00;;;;;20.97;36.90;100259.78;146599;573;46020;-70
2022/02/07 12:58:42;;;;;;;;;8.50;5.50;;;;;20.82;37.98;100255.38;146597;569;47010;-70
2022/02/07 13:01:51;;;;;;;;;10.50;7.00;;;;;20.49;38.25;100245.56;146598;635;46020;-70
2022/02/07 13:04:47;;;;;;;;;6.75;6.00;;;;;20.24;37.12;100248.09;146597;655;46016;-71
2022/02/07 13:07:44;;;;;;;;;7.00;6.25;;;;;20.16;38.79;100244.59;146601;569;47008;-69
2022/02/07 13:10:37;;;;;;;;;9.25;7.75;;;;;20.13;39.52;100238.44;146597;620;47010;-71
2022/02/07 13:13:39;;;;;;;;;7.50;7.50;;;;;20.14;38.21;100235.78;146594;578;46021;-70
2022/02/07 13:16:33;;;;;;;;;10.25;9.50;;;;;20.12;37.38;100226.13;146601;658;46010;-72
2022/02/07 13:19:27;;;;;;;;;8.50;7.75;;;;;20.12;37.75;100227.00;146599;573;46020;-71
2022/02/07 13:22:22;;;;;;;;;10.50;7.75;;;;;20.25;38.39;100223.56;146597;638;46016;-71
2022/02/07 13:25:15;;;;;;;;;6.00;5.00;;;;;20.56;36.43;100214.88;146604;664;46020;-71
2022/02/07 13:28:07;;;;;;;;;6.50;6.50;;;;;20.77;37.94;100209.66;146598;584;47012;-70
2022/02/07 13:31:02;;;;;;;;;8.00;6.50;;;;;20.68;38.09;100201.75;146594;602;47008;-71
2022/02/07 13:33:57;;;;;;;;;7.50;7.50;;;;;20.53;38.14;100194.72;146600;704;46914;-71
2022/02/07 13:36:51;;;;;;;;;6.50;6.50;;;;;20.29;38.23;100196.37;146600;603;46021;-72
2022/02/07 13:40:04;;;;;;;;;7.50;7.50;;;;;20.04;40.04;100194.53;146596;667;46016;-71
2022/02/07 13:42:56;;;;;;;;;7.75;7.25;;;;;19.81;37.51;100183.88;146591;594;46021;-71
2022/02/07 13:45:50;;;;;;;;;8.75;8.75;;;;;19.62;37.37;100182.84;146597;661;46016;-71
2022/02/07 13:48:42;;;;;;;;;10.50;8.75;;;;;19.49;38.56;100175.78;146599;579;46916;-70
2022/02/07 13:51:35;;;;;;;;;8.25;6.00;;;;;19.32;38.60;100163.41;146598;687;46914;-71
2022/02/07 13:54:36;;;;;;;;;9.25;8.50;;;;;19.13;40.64;100169.41;146598;718;46020;-71
2022/02/07 13:57:28;;;;;;;;;6.25;5.50;;;;;18.86;39.59;100159.56;146596;577;46017;-69
2022/02/07 14:00:22;;;;;;;;;9.50;7.00;;;;;18.67;39.59;100158.47;146604;662;47008;-71
2022/02/07 14:03:34;;;;;;;;;9.00;7.25;;;;;18.45;40.18;100150.38;146602;563;46020;-71
2022/02/07 14:06:29;;;;;;;;;10.00;9.50;;;;;18.32;41.14;100151.12;146601;658;46021;-71
2022/02/07 14:09:22;;;;;;;;;14.75;12.25;;;;;18.19;39.84;100139.63;146601;575;46010;-71
2022/02/07 14:12:14;;;;;;;;;32.50;28.25;;;;;18.11;41.72;100141.28;146591;611;47008;-71
2022/02/07 14:15:07;;;;;;;;;24.25;22.75;;;;;18.02;41.96;100135.91;146594;610;46016;-71
2022/02/07 14:18:02;;;;;;;;;23.25;21.00;;;;;17.97;41.79;100135.87;146602;653;46020;-69
2022/02/07 14:20:54;;;;;;;;;9.50;8.50;;;;;17.89;41.89;100136.66;146594;590;46914;-70
2022/02/07 14:23:49;;;;;;;;;17.75;15.00;;;;;17.78;41.73;100134.75;146598;620;46020;-70
2022/02/07 14:26:41;;;;;;;;;13.50;11.25;;;;;17.75;42.62;100129.44;146600;717;46010;-71
2022/02/07 14:29:33;;;;;;;;;11.25;11.00;;;;;17.72;42.52;100131.13;146600;569;46020;-70
2022/02/07 14:32:25;;;;;;;;;13.75;12.00;;;;;17.68;42.30;100134.59;146597;563;46016;-70
2022/02/07 14:35:17;;;;;;;;;14.75;14.75;;;;;17.66;42.44;100112.72;146599;588;46021;-70
2022/02/07 14:38:10;;;;;;;;;15.75;14.25;;;;;17.69;42.32;100104.87;146594;601;47012;-71
2022/02/07 14:41:06;;;;;;;;;13.00;12.50;;;;;17.71;42.29;100105.78;146589;610;46020;-71
2022/02/07 14:44:03;;;;;;;;;13.75;11.50;;;;;17.74;42.03;100104.09;146597;583;46016;-71
2022/02/07 14:47:05;;;;;;;;;14.50;13.75;;;;;17.80;42.31;100107.69;146599;607;46020;-71
2022/02/07 14:49:58;;;;;;;;;9.00;8.00;;;;;17.81;42.19;100105.06;146598;588;46016;-71
2022/02/07 14:52:50;;;;;;;;;17.00;14.75;;;;;17.87;41.68;100104.25;146598;613;47008;-71
2022/02/07 14:55:43;;;;;;;;;13.25;13.25;;;;;17.87;42.24;100102.50;146595;580;47010;-71
2022/02/07 14:58:35;;;;;;;;;8.75;7.75;;;;;17.83;41.49;100102.47;146601;572;47008;-70
2022/02/07 15:01:27;;;;;;;;;13.75;13.75;;;;;17.79;42.42;100096.31;146602;664;46010;-71
2022/02/07 15:04:19;;;;;;;;;15.25;14.25;;;;;17.77;42.52;100093.66;146601;626;47008;-71
2022/02/07 15:07:12;;;;;;;;;15.00;14.25;;;;;17.76;42.66;100085.75;146596;586;46016;-71
2022/02/07 15:10:04;;;;;;;;;20.25;16.50;;;;;17.72;42.95;100079.56;146592;564;46020;-72
2022/02/07 15:12:56;;;;;;;;;24.50;22.75;;;;;17.72;42.07;100090.06;146598;642;47010;-72
2022/02/07 15:15:49;;;;;;;;;23.75;18.00;;;;;17.62;43.07;100075.09;146596;586;47008;-71
2022/02/07 15:18:41;;;;;;;;;24.50;21.50;;;;;16.59;42.58;99910.44;146599;602;46034;-70
2022/02/07 15:21:33;;;;;;;;;20.50;19.50;;;;;16.48;43.70;99912.91;146597;578;46020;-71
2022/02/07 15:24:26;;;;;;;;;22.75;21.00;;;;;17.39;44.00;100072.19;146601;616;46031;-71
2022/02/07 15:27:18;;;;;;;;;46.25;39.50;;;;;16.12;44.10;99861.81;146595;628;47008;-72